sensor_id;sensor_type;location;lat;lon;timestamp;temperature;humidity
27072;DHT22;14613;46.308;25.288;2022-10-23T00:00:01;15.60;77.00
27072;DHT22;14613;46.308;25.288;2022-10-23T00:02:28;15.60;77.00
27072;DHT22;14613;46.308;25.288;2022-10-23T00:04:53;15.60;77.00
27072;DHT22;14613;46.308;25.288;2022-10-23T00:07:19;15.60;77.00
27072;DHT22;14613;46.308;25.288;2022-10-23T00:09:45;15.60;77.00
27072;DHT22;14613;46.308;25.288;2022-10-23T00:12:10;15.60;77.00
27072;DHT22;14613;46.308;25.288;2022-10-23T00:14:36;15.50;77.20
27072;DHT22;14613;46.308;25.288;2022-10-23T00:17:02;15.50;77.30
27072;DHT22;14613;46.308;25.288;2022-10-23T00:19:28;15.50;77.30
27072;DHT22;14613;46.308;25.288;2022-10-23T00:21:53;15.50;77.30
27072;DHT22;14613;46.308;25.288;2022-10-23T00:24:19;15.50;77.50
27072;DHT22;14613;46.308;25.288;2022-10-23T00:26:45;15.50;77.60
27072;DHT22;14613;46.308;25.288;2022-10-23T00:29:13;15.50;77.60
27072;DHT22;14613;46.308;25.288;2022-10-23T00:31:38;15.50;77.60
27072;DHT22;14613;46.308;25.288;2022-10-23T00:34:04;15.40;77.60
27072;DHT22;14613;46.308;25.288;2022-10-23T00:36:33;15.40;77.80
27072;DHT22;14613;46.308;25.288;2022-10-23T00:38:58;15.40;77.90
27072;DHT22;14613;46.308;25.288;2022-10-23T00:41:28;15.30;78.20
27072;DHT22;14613;46.308;25.288;2022-10-23T00:44:07;15.20;78.50
27072;DHT22;14613;46.308;25.288;2022-10-23T00:46:35;15.20;78.70
27072;DHT22;14613;46.308;25.288;2022-10-23T00:49:02;15.20;78.70
27072;DHT22;14613;46.308;25.288;2022-10-23T00:51:32;15.30;78.80
27072;DHT22;14613;46.308;25.288;2022-10-23T00:53:59;15.30;78.70
27072;DHT22;14613;46.308;25.288;2022-10-23T00:56:26;15.30;78.70
27072;DHT22;14613;46.308;25.288;2022-10-23T00:58:52;15.40;78.70
27072;DHT22;14613;46.308;25.288;2022-10-23T01:01:21;15.40;78.60
27072;DHT22;14613;46.308;25.288;2022-10-23T01:03:48;15.40;78.60
27072;DHT22;14613;46.308;25.288;2022-10-23T01:09:29;15.40;78.60
27072;DHT22;14613;46.308;25.288;2022-10-23T01:12:02;15.40;78.70
27072;DHT22;14613;46.308;25.288;2022-10-23T01:15:08;15.30;78.80
27072;DHT22;14613;46.308;25.288;2022-10-23T01:32:19;15.40;79.20
27072;DHT22;14613;46.308;25.288;2022-10-23T01:37:46;15.40;79.30
27072;DHT22;14613;46.308;25.288;2022-10-23T01:40:33;15.40;79.30
27072;DHT22;14613;46.308;25.288;2022-10-23T01:43:04;15.40;79.30
27072;DHT22;14613;46.308;25.288;2022-10-23T01:45:39;15.40;79.30
27072;DHT22;14613;46.308;25.288;2022-10-23T01:48:09;15.40;79.40
27072;DHT22;14613;46.308;25.288;2022-10-23T01:50:37;15.40;79.50
27072;DHT22;14613;46.308;25.288;2022-10-23T01:53:04;15.40;79.60
27072;DHT22;14613;46.308;25.288;2022-10-23T01:55:31;15.40;79.60
27072;DHT22;14613;46.308;25.288;2022-10-23T01:58:01;15.40;79.60
27072;DHT22;14613;46.308;25.288;2022-10-23T02:00:29;15.40;79.60
27072;DHT22;14613;46.308;25.288;2022-10-23T02:03:18;15.40;79.60
27072;DHT22;14613;46.308;25.288;2022-10-23T02:05:46;15.40;79.70
27072;DHT22;14613;46.308;25.288;2022-10-23T02:08:16;15.40;79.70
27072;DHT22;14613;46.308;25.288;2022-10-23T02:11:03;15.30;79.70
27072;DHT22;14613;46.308;25.288;2022-10-23T02:24:11;15.30;80.30
27072;DHT22;14613;46.308;25.288;2022-10-23T02:26:56;15.30;80.30
27072;DHT22;14613;46.308;25.288;2022-10-23T02:29:32;15.30;80.50
27072;DHT22;14613;46.308;25.288;2022-10-23T02:32:00;15.30;80.50
27072;DHT22;14613;46.308;25.288;2022-10-23T02:34:26;15.30;80.50
27072;DHT22;14613;46.308;25.288;2022-10-23T02:36:52;15.30;80.30
27072;DHT22;14613;46.308;25.288;2022-10-23T02:39:20;15.30;80.30
27072;DHT22;14613;46.308;25.288;2022-10-23T02:41:53;15.30;80.30
27072;DHT22;14613;46.308;25.288;2022-10-23T02:50:09;15.30;80.50
27072;DHT22;14613;46.308;25.288;2022-10-23T02:53:04;15.30;80.50
27072;DHT22;14613;46.308;25.288;2022-10-23T03:00:54;15.30;80.60
27072;DHT22;14613;46.308;25.288;2022-10-23T03:03:31;15.30;80.80
27072;DHT22;14613;46.308;25.288;2022-10-23T03:05:58;15.20;80.90
27072;DHT22;14613;46.308;25.288;2022-10-23T03:08:24;15.20;81.10
27072;DHT22;14613;46.308;25.288;2022-10-23T03:10:50;15.20;81.30
27072;DHT22;14613;46.308;25.288;2022-10-23T03:13:16;15.20;81.40
27072;DHT22;14613;46.308;25.288;2022-10-23T03:15:42;15.20;81.50
27072;DHT22;14613;46.308;25.288;2022-10-23T03:18:08;15.20;81.60
27072;DHT22;14613;46.308;25.288;2022-10-23T03:20:34;15.20;81.70
27072;DHT22;14613;46.308;25.288;2022-10-23T03:22:59;15.20;81.80
27072;DHT22;14613;46.308;25.288;2022-10-23T03:25:25;15.20;82.00
27072;DHT22;14613;46.308;25.288;2022-10-23T03:27:51;15.20;82.10
27072;DHT22;14613;46.308;25.288;2022-10-23T03:30:17;15.20;82.30
27072;DHT22;14613;46.308;25.288;2022-10-23T03:32:43;15.20;82.60
27072;DHT22;14613;46.308;25.288;2022-10-23T03:35:08;15.10;82.80
27072;DHT22;14613;46.308;25.288;2022-10-23T03:37:34;15.10;82.90
27072;DHT22;14613;46.308;25.288;2022-10-23T03:40:00;15.10;83.00
27072;DHT22;14613;46.308;25.288;2022-10-23T03:42:25;15.10;83.10
27072;DHT22;14613;46.308;25.288;2022-10-23T03:44:51;15.20;83.10
27072;DHT22;14613;46.308;25.288;2022-10-23T03:47:17;15.20;83.10
27072;DHT22;14613;46.308;25.288;2022-10-23T03:49:43;15.20;83.20
27072;DHT22;14613;46.308;25.288;2022-10-23T03:52:08;15.20;83.20
27072;DHT22;14613;46.308;25.288;2022-10-23T03:54:34;15.20;83.30
27072;DHT22;14613;46.308;25.288;2022-10-23T03:57:00;15.20;83.40
27072;DHT22;14613;46.308;25.288;2022-10-23T03:59:26;15.20;83.40
27072;DHT22;14613;46.308;25.288;2022-10-23T04:01:52;15.20;83.50
27072;DHT22;14613;46.308;25.288;2022-10-23T04:04:18;15.20;83.50
27072;DHT22;14613;46.308;25.288;2022-10-23T04:06:44;15.20;83.50
27072;DHT22;14613;46.308;25.288;2022-10-23T04:09:09;15.20;83.60
27072;DHT22;14613;46.308;25.288;2022-10-23T04:11:35;15.20;83.50
27072;DHT22;14613;46.308;25.288;2022-10-23T04:14:01;15.20;83.60
27072;DHT22;14613;46.308;25.288;2022-10-23T04:16:27;15.20;83.60
27072;DHT22;14613;46.308;25.288;2022-10-23T04:18:53;15.20;83.70
27072;DHT22;14613;46.308;25.288;2022-10-23T04:21:18;15.20;83.70
27072;DHT22;14613;46.308;25.288;2022-10-23T04:23:44;15.20;83.80
27072;DHT22;14613;46.308;25.288;2022-10-23T04:26:10;15.10;83.90
27072;DHT22;14613;46.308;25.288;2022-10-23T04:28:36;15.10;84.00
27072;DHT22;14613;46.308;25.288;2022-10-23T04:31:02;15.10;84.10
27072;DHT22;14613;46.308;25.288;2022-10-23T04:33:28;15.00;84.30
27072;DHT22;14613;46.308;25.288;2022-10-23T04:35:53;15.00;84.40
27072;DHT22;14613;46.308;25.288;2022-10-23T04:38:19;14.90;84.60
27072;DHT22;14613;46.308;25.288;2022-10-23T04:40:45;14.90;84.70
27072;DHT22;14613;46.308;25.288;2022-10-23T04:43:11;14.90;84.70
27072;DHT22;14613;46.308;25.288;2022-10-23T04:45:36;14.90;84.90
27072;DHT22;14613;46.308;25.288;2022-10-23T04:48:02;14.90;84.90
27072;DHT22;14613;46.308;25.288;2022-10-23T04:50:28;14.80;84.90
27072;DHT22;14613;46.308;25.288;2022-10-23T04:52:55;14.80;85.00
27072;DHT22;14613;46.308;25.288;2022-10-23T04:55:22;14.80;85.10
27072;DHT22;14613;46.308;25.288;2022-10-23T04:57:50;14.80;85.20
27072;DHT22;14613;46.308;25.288;2022-10-23T05:00:16;14.80;85.10
27072;DHT22;14613;46.308;25.288;2022-10-23T05:02:43;14.80;85.00
27072;DHT22;14613;46.308;25.288;2022-10-23T05:05:10;14.80;85.00
27072;DHT22;14613;46.308;25.288;2022-10-23T05:07:36;14.80;85.00
27072;DHT22;14613;46.308;25.288;2022-10-23T05:10:03;14.80;85.20
27072;DHT22;14613;46.308;25.288;2022-10-23T05:12:29;14.80;85.20
27072;DHT22;14613;46.308;25.288;2022-10-23T05:14:55;14.70;85.20
27072;DHT22;14613;46.308;25.288;2022-10-23T05:17:41;14.70;85.30
27072;DHT22;14613;46.308;25.288;2022-10-23T05:20:15;14.70;85.40
27072;DHT22;14613;46.308;25.288;2022-10-23T05:22:43;14.70;85.40
27072;DHT22;14613;46.308;25.288;2022-10-23T05:25:11;14.70;85.60
27072;DHT22;14613;46.308;25.288;2022-10-23T05:27:37;14.70;85.60
27072;DHT22;14613;46.308;25.288;2022-10-23T05:30:04;14.70;85.60
27072;DHT22;14613;46.308;25.288;2022-10-23T05:32:31;14.70;85.60
27072;DHT22;14613;46.308;25.288;2022-10-23T05:34:59;14.70;85.60
27072;DHT22;14613;46.308;25.288;2022-10-23T05:37:26;14.70;85.50
27072;DHT22;14613;46.308;25.288;2022-10-23T05:39:52;14.70;85.50
27072;DHT22;14613;46.308;25.288;2022-10-23T05:42:17;14.70;85.60
27072;DHT22;14613;46.308;25.288;2022-10-23T05:44:43;14.70;85.50
27072;DHT22;14613;46.308;25.288;2022-10-23T05:47:09;14.80;85.60
27072;DHT22;14613;46.308;25.288;2022-10-23T05:49:34;14.80;85.60
27072;DHT22;14613;46.308;25.288;2022-10-23T05:52:00;14.80;85.50
27072;DHT22;14613;46.308;25.288;2022-10-23T05:54:26;14.80;85.50
27072;DHT22;14613;46.308;25.288;2022-10-23T05:56:51;14.80;85.50
27072;DHT22;14613;46.308;25.288;2022-10-23T05:59:17;14.80;85.60
27072;DHT22;14613;46.308;25.288;2022-10-23T06:01:43;14.80;85.60
27072;DHT22;14613;46.308;25.288;2022-10-23T06:04:09;14.80;85.50
27072;DHT22;14613;46.308;25.288;2022-10-23T06:06:34;14.80;85.30
27072;DHT22;14613;46.308;25.288;2022-10-23T06:14:45;14.80;85.50
27072;DHT22;14613;46.308;25.288;2022-10-23T06:17:11;14.80;85.60
27072;DHT22;14613;46.308;25.288;2022-10-23T06:19:37;14.70;85.50
27072;DHT22;14613;46.308;25.288;2022-10-23T06:22:04;14.70;85.70
27072;DHT22;14613;46.308;25.288;2022-10-23T06:24:29;14.70;85.90
27072;DHT22;14613;46.308;25.288;2022-10-23T06:26:55;14.70;86.10
27072;DHT22;14613;46.308;25.288;2022-10-23T06:29:21;14.70;86.10
27072;DHT22;14613;46.308;25.288;2022-10-23T06:31:47;14.80;86.00
27072;DHT22;14613;46.308;25.288;2022-10-23T06:34:13;14.80;86.10
27072;DHT22;14613;46.308;25.288;2022-10-23T06:36:38;14.70;86.10
27072;DHT22;14613;46.308;25.288;2022-10-23T06:39:05;14.70;86.10
27072;DHT22;14613;46.308;25.288;2022-10-23T06:41:31;14.80;86.10
27072;DHT22;14613;46.308;25.288;2022-10-23T06:43:56;14.80;85.90
27072;DHT22;14613;46.308;25.288;2022-10-23T06:46:22;14.80;85.80
27072;DHT22;14613;46.308;25.288;2022-10-23T06:48:48;14.80;85.70
27072;DHT22;14613;46.308;25.288;2022-10-23T06:51:16;14.80;85.70
27072;DHT22;14613;46.308;25.288;2022-10-23T06:53:43;14.70;85.80
27072;DHT22;14613;46.308;25.288;2022-10-23T06:56:09;14.80;85.90
27072;DHT22;14613;46.308;25.288;2022-10-23T06:58:37;14.80;85.90
27072;DHT22;14613;46.308;25.288;2022-10-23T07:01:06;14.80;85.90
27072;DHT22;14613;46.308;25.288;2022-10-23T07:03:32;14.70;85.80
27072;DHT22;14613;46.308;25.288;2022-10-23T07:06:03;14.70;85.80
27072;DHT22;14613;46.308;25.288;2022-10-23T07:08:29;14.70;85.90
27072;DHT22;14613;46.308;25.288;2022-10-23T07:10:55;14.70;85.80
27072;DHT22;14613;46.308;25.288;2022-10-23T07:13:21;14.70;85.90
27072;DHT22;14613;46.308;25.288;2022-10-23T07:15:49;14.70;85.90
27072;DHT22;14613;46.308;25.288;2022-10-23T07:18:15;14.60;85.90
27072;DHT22;14613;46.308;25.288;2022-10-23T07:20:42;14.60;86.10
27072;DHT22;14613;46.308;25.288;2022-10-23T07:23:10;14.60;86.10
27072;DHT22;14613;46.308;25.288;2022-10-23T07:25:36;14.60;86.20
27072;DHT22;14613;46.308;25.288;2022-10-23T07:28:05;14.60;86.20
27072;DHT22;14613;46.308;25.288;2022-10-23T07:30:31;14.60;86.20
27072;DHT22;14613;46.308;25.288;2022-10-23T07:32:57;14.60;87.00
27072;DHT22;14613;46.308;25.288;2022-10-23T07:35:22;14.50;86.20
27072;DHT22;14613;46.308;25.288;2022-10-23T07:37:48;14.60;86.20
27072;DHT22;14613;46.308;25.288;2022-10-23T07:40:14;14.60;86.10
27072;DHT22;14613;46.308;25.288;2022-10-23T07:42:41;14.50;86.10
27072;DHT22;14613;46.308;25.288;2022-10-23T07:45:07;14.50;86.10
27072;DHT22;14613;46.308;25.288;2022-10-23T07:47:33;14.50;86.40
27072;DHT22;14613;46.308;25.288;2022-10-23T07:49:59;14.40;86.70
27072;DHT22;14613;46.308;25.288;2022-10-23T07:52:25;14.40;86.80
27072;DHT22;14613;46.308;25.288;2022-10-23T07:54:51;14.40;86.80
27072;DHT22;14613;46.308;25.288;2022-10-23T07:57:17;14.40;86.70
27072;DHT22;14613;46.308;25.288;2022-10-23T07:59:43;14.50;86.70
27072;DHT22;14613;46.308;25.288;2022-10-23T08:02:10;14.50;86.80
27072;DHT22;14613;46.308;25.288;2022-10-23T08:04:36;14.50;86.80
27072;DHT22;14613;46.308;25.288;2022-10-23T08:07:02;14.50;86.80
27072;DHT22;14613;46.308;25.288;2022-10-23T08:09:28;14.50;86.70
27072;DHT22;14613;46.308;25.288;2022-10-23T08:11:54;14.60;86.70
27072;DHT22;14613;46.308;25.288;2022-10-23T08:14:19;14.60;86.60
27072;DHT22;14613;46.308;25.288;2022-10-23T08:16:45;14.60;86.50
27072;DHT22;14613;46.308;25.288;2022-10-23T08:19:11;14.60;86.50
27072;DHT22;14613;46.308;25.288;2022-10-23T08:21:36;14.60;86.40
27072;DHT22;14613;46.308;25.288;2022-10-23T08:24:02;14.70;86.50
27072;DHT22;14613;46.308;25.288;2022-10-23T08:26:29;14.70;86.60
27072;DHT22;14613;46.308;25.288;2022-10-23T08:28:57;14.70;86.50
27072;DHT22;14613;46.308;25.288;2022-10-23T08:31:23;14.70;86.40
27072;DHT22;14613;46.308;25.288;2022-10-23T08:33:49;14.80;86.20
27072;DHT22;14613;46.308;25.288;2022-10-23T08:36:33;14.70;86.30
27072;DHT22;14613;46.308;25.288;2022-10-23T08:49:34;14.80;86.20
27072;DHT22;14613;46.308;25.288;2022-10-23T08:52:06;14.70;86.20
27072;DHT22;14613;46.308;25.288;2022-10-23T08:54:46;14.80;86.30
27072;DHT22;14613;46.308;25.288;2022-10-23T08:57:15;14.80;86.40
27072;DHT22;14613;46.308;25.288;2022-10-23T08:59:47;14.70;86.20
27072;DHT22;14613;46.308;25.288;2022-10-23T09:02:27;14.80;86.40
27072;DHT22;14613;46.308;25.288;2022-10-23T09:04:55;14.70;86.30
27072;DHT22;14613;46.308;25.288;2022-10-23T09:12:40;14.80;86.40
27072;DHT22;14613;46.308;25.288;2022-10-23T09:15:23;14.80;86.50
27072;DHT22;14613;46.308;25.288;2022-10-23T09:18:04;14.80;86.40
27072;DHT22;14613;46.308;25.288;2022-10-23T09:20:32;14.90;86.40
27072;DHT22;14613;46.308;25.288;2022-10-23T09:23:23;14.90;86.50
27072;DHT22;14613;46.308;25.288;2022-10-23T09:25:48;14.90;86.50
27072;DHT22;14613;46.308;25.288;2022-10-23T09:28:26;14.90;86.40
27072;DHT22;14613;46.308;25.288;2022-10-23T09:30:53;14.90;86.40
27072;DHT22;14613;46.308;25.288;2022-10-23T09:33:29;14.90;86.40
27072;DHT22;14613;46.308;25.288;2022-10-23T09:36:18;14.90;86.30
27072;DHT22;14613;46.308;25.288;2022-10-23T09:41:18;15.00;86.10
27072;DHT22;14613;46.308;25.288;2022-10-23T09:43:44;15.00;86.00
27072;DHT22;14613;46.308;25.288;2022-10-23T09:46:09;15.10;85.90
27072;DHT22;14613;46.308;25.288;2022-10-23T09:48:37;15.10;85.90
27072;DHT22;14613;46.308;25.288;2022-10-23T09:51:17;15.10;85.80
27072;DHT22;14613;46.308;25.288;2022-10-23T09:53:56;15.10;85.70
27072;DHT22;14613;46.308;25.288;2022-10-23T09:56:26;15.10;85.70
27072;DHT22;14613;46.308;25.288;2022-10-23T10:01:52;14.90;85.90
27072;DHT22;14613;46.308;25.288;2022-10-23T10:04:18;14.90;87.00
27072;DHT22;14613;46.308;25.288;2022-10-23T10:06:44;14.80;86.40
27072;DHT22;14613;46.308;25.288;2022-10-23T10:09:15;14.80;86.60
27072;DHT22;14613;46.308;25.288;2022-10-23T10:11:52;14.80;86.60
27072;DHT22;14613;46.308;25.288;2022-10-23T10:23:13;14.90;86.60
27072;DHT22;14613;46.308;25.288;2022-10-23T10:25:53;15.00;86.40
27072;DHT22;14613;46.308;25.288;2022-10-23T10:28:30;15.00;86.20
27072;DHT22;14613;46.308;25.288;2022-10-23T10:34:36;15.10;86.10
27072;DHT22;14613;46.308;25.288;2022-10-23T10:37:20;15.10;86.10
27072;DHT22;14613;46.308;25.288;2022-10-23T10:46:17;15.10;86.10
27072;DHT22;14613;46.308;25.288;2022-10-23T10:49:11;15.10;85.90
27072;DHT22;14613;46.308;25.288;2022-10-23T10:57:44;15.10;86.20
27072;DHT22;14613;46.308;25.288;2022-10-23T11:00:15;15.10;86.20
27072;DHT22;14613;46.308;25.288;2022-10-23T11:02:59;15.10;86.20
27072;DHT22;14613;46.308;25.288;2022-10-23T11:08:04;15.10;86.30
27072;DHT22;14613;46.308;25.288;2022-10-23T11:10:32;15.10;86.40
27072;DHT22;14613;46.308;25.288;2022-10-23T11:13:03;15.10;86.40
27072;DHT22;14613;46.308;25.288;2022-10-23T11:15:40;15.10;86.50
27072;DHT22;14613;46.308;25.288;2022-10-23T11:18:19;15.20;86.50
27072;DHT22;14613;46.308;25.288;2022-10-23T11:23:28;15.30;86.30
27072;DHT22;14613;46.308;25.288;2022-10-23T11:32:31;15.30;86.20
27072;DHT22;14613;46.308;25.288;2022-10-23T11:37:07;15.40;86.10
27072;DHT22;14613;46.308;25.288;2022-10-23T11:39:35;15.40;86.00
27072;DHT22;14613;46.308;25.288;2022-10-23T11:44:43;15.40;85.90
27072;DHT22;14613;46.308;25.288;2022-10-23T11:50:24;15.40;85.80
27072;DHT22;14613;46.308;25.288;2022-10-23T11:55:27;15.40;86.10
27072;DHT22;14613;46.308;25.288;2022-10-23T11:58:44;15.30;85.90
27072;DHT22;14613;46.308;25.288;2022-10-23T12:03:53;15.30;85.90
27072;DHT22;14613;46.308;25.288;2022-10-23T12:06:31;15.30;85.90
27072;DHT22;14613;46.308;25.288;2022-10-23T12:09:03;15.40;86.40
27072;DHT22;14613;46.308;25.288;2022-10-23T12:11:43;15.40;85.90
27072;DHT22;14613;46.308;25.288;2022-10-23T12:14:33;15.40;85.80
27072;DHT22;14613;46.308;25.288;2022-10-23T12:17:00;15.40;85.80
27072;DHT22;14613;46.308;25.288;2022-10-23T12:19:29;15.40;85.80
27072;DHT22;14613;46.308;25.288;2022-10-23T12:22:00;15.40;85.80
27072;DHT22;14613;46.308;25.288;2022-10-23T12:30:22;15.40;85.60
27072;DHT22;14613;46.308;25.288;2022-10-23T12:38:31;15.40;85.80
27072;DHT22;14613;46.308;25.288;2022-10-23T12:41:22;15.40;85.90
27072;DHT22;14613;46.308;25.288;2022-10-23T12:44:00;15.40;86.00
27072;DHT22;14613;46.308;25.288;2022-10-23T12:46:40;15.40;85.90
27072;DHT22;14613;46.308;25.288;2022-10-23T12:49:16;15.50;86.00
27072;DHT22;14613;46.308;25.288;2022-10-23T12:51:42;15.50;86.80
27072;DHT22;14613;46.308;25.288;2022-10-23T12:54:16;15.50;86.00
27072;DHT22;14613;46.308;25.288;2022-10-23T12:56:42;15.50;85.80
27072;DHT22;14613;46.308;25.288;2022-10-23T12:59:35;15.50;85.60
27072;DHT22;14613;46.308;25.288;2022-10-23T13:02:33;15.50;85.70
27072;DHT22;14613;46.308;25.288;2022-10-23T13:05:04;15.60;85.80
27072;DHT22;14613;46.308;25.288;2022-10-23T13:07:33;15.60;85.80
27072;DHT22;14613;46.308;25.288;2022-10-23T13:10:00;15.60;85.60
27072;DHT22;14613;46.308;25.288;2022-10-23T13:12:32;15.60;86.50
27072;DHT22;14613;46.308;25.288;2022-10-23T13:15:18;15.60;85.70
27072;DHT22;14613;46.308;25.288;2022-10-23T13:20:27;15.60;85.70
27072;DHT22;14613;46.308;25.288;2022-10-23T13:26:01;15.60;85.60
27072;DHT22;14613;46.308;25.288;2022-10-23T13:28:32;15.60;85.70
27072;DHT22;14613;46.308;25.288;2022-10-23T13:33:38;15.70;85.80
27072;DHT22;14613;46.308;25.288;2022-10-23T13:36:22;15.70;85.60
27072;DHT22;14613;46.308;25.288;2022-10-23T13:39:13;15.80;85.60
27072;DHT22;14613;46.308;25.288;2022-10-23T13:41:42;15.80;85.40
27072;DHT22;14613;46.308;25.288;2022-10-23T13:44:18;15.80;85.20
27072;DHT22;14613;46.308;25.288;2022-10-23T13:46:44;15.90;85.20
27072;DHT22;14613;46.308;25.288;2022-10-23T13:49:10;15.90;84.90
27072;DHT22;14613;46.308;25.288;2022-10-23T13:51:40;16.00;84.80
27072;DHT22;14613;46.308;25.288;2022-10-23T13:54:29;16.00;84.60
27072;DHT22;14613;46.308;25.288;2022-10-23T13:56:58;16.00;84.50
27072;DHT22;14613;46.308;25.288;2022-10-23T13:59:23;16.10;84.40
27072;DHT22;14613;46.308;25.288;2022-10-23T14:01:50;16.10;84.40
27072;DHT22;14613;46.308;25.288;2022-10-23T14:04:17;16.10;84.30
27072;DHT22;14613;46.308;25.288;2022-10-23T14:06:43;16.10;84.20
27072;DHT22;14613;46.308;25.288;2022-10-23T14:09:16;16.10;84.20
27072;DHT22;14613;46.308;25.288;2022-10-23T14:11:43;16.10;84.20
27072;DHT22;14613;46.308;25.288;2022-10-23T14:14:09;16.00;84.00
27072;DHT22;14613;46.308;25.288;2022-10-23T14:16:35;16.10;84.10
27072;DHT22;14613;46.308;25.288;2022-10-23T14:19:00;16.00;84.00
27072;DHT22;14613;46.308;25.288;2022-10-23T14:21:26;16.00;84.00
27072;DHT22;14613;46.308;25.288;2022-10-23T14:23:52;16.00;84.00
27072;DHT22;14613;46.308;25.288;2022-10-23T14:26:21;16.00;84.00
27072;DHT22;14613;46.308;25.288;2022-10-23T14:28:50;15.90;84.00
27072;DHT22;14613;46.308;25.288;2022-10-23T14:31:17;15.90;84.10
27072;DHT22;14613;46.308;25.288;2022-10-23T14:33:44;15.80;84.00
27072;DHT22;14613;46.308;25.288;2022-10-23T14:36:10;15.80;84.00
27072;DHT22;14613;46.308;25.288;2022-10-23T14:38:36;15.80;84.00
27072;DHT22;14613;46.308;25.288;2022-10-23T14:41:04;15.80;84.00
27072;DHT22;14613;46.308;25.288;2022-10-23T14:43:33;15.70;84.10
27072;DHT22;14613;46.308;25.288;2022-10-23T14:46:07;15.70;83.90
27072;DHT22;14613;46.308;25.288;2022-10-23T14:48:33;15.70;83.80
27072;DHT22;14613;46.308;25.288;2022-10-23T14:51:03;15.60;83.80
27072;DHT22;14613;46.308;25.288;2022-10-23T14:53:29;15.50;83.90
27072;DHT22;14613;46.308;25.288;2022-10-23T14:56:00;15.50;84.00
27072;DHT22;14613;46.308;25.288;2022-10-23T14:58:26;15.40;84.00
27072;DHT22;14613;46.308;25.288;2022-10-23T15:00:57;15.40;84.10
27072;DHT22;14613;46.308;25.288;2022-10-23T15:03:23;15.40;84.20
27072;DHT22;14613;46.308;25.288;2022-10-23T15:05:48;15.30;84.10
27072;DHT22;14613;46.308;25.288;2022-10-23T15:08:14;15.30;84.10
27072;DHT22;14613;46.308;25.288;2022-10-23T15:10:40;15.30;84.10
27072;DHT22;14613;46.308;25.288;2022-10-23T15:13:05;15.30;84.00
27072;DHT22;14613;46.308;25.288;2022-10-23T15:15:31;15.30;84.00
27072;DHT22;14613;46.308;25.288;2022-10-23T15:17:57;15.20;83.90
27072;DHT22;14613;46.308;25.288;2022-10-23T15:20:22;15.20;84.00
27072;DHT22;14613;46.308;25.288;2022-10-23T15:22:48;15.10;83.80
27072;DHT22;14613;46.308;25.288;2022-10-23T15:25:14;15.10;83.80
27072;DHT22;14613;46.308;25.288;2022-10-23T15:27:39;15.10;83.80
27072;DHT22;14613;46.308;25.288;2022-10-23T15:30:05;15.00;83.80
27072;DHT22;14613;46.308;25.288;2022-10-23T15:32:31;15.00;83.80
27072;DHT22;14613;46.308;25.288;2022-10-23T15:34:57;14.90;83.80
27072;DHT22;14613;46.308;25.288;2022-10-23T15:37:24;14.80;83.80
27072;DHT22;14613;46.308;25.288;2022-10-23T15:39:50;14.80;83.80
27072;DHT22;14613;46.308;25.288;2022-10-23T15:42:16;14.70;83.80
27072;DHT22;14613;46.308;25.288;2022-10-23T15:44:44;14.60;83.80
27072;DHT22;14613;46.308;25.288;2022-10-23T15:47:10;14.60;83.80
27072;DHT22;14613;46.308;25.288;2022-10-23T15:49:36;14.50;83.80
27072;DHT22;14613;46.308;25.288;2022-10-23T15:52:02;14.40;83.80
27072;DHT22;14613;46.308;25.288;2022-10-23T15:54:29;14.30;83.90
27072;DHT22;14613;46.308;25.288;2022-10-23T15:56:55;14.20;84.10
27072;DHT22;14613;46.308;25.288;2022-10-23T15:59:23;14.20;84.20
27072;DHT22;14613;46.308;25.288;2022-10-23T16:01:50;14.10;84.20
27072;DHT22;14613;46.308;25.288;2022-10-23T16:04:16;14.10;84.30
27072;DHT22;14613;46.308;25.288;2022-10-23T16:06:43;14.00;84.20
27072;DHT22;14613;46.308;25.288;2022-10-23T16:09:09;14.00;84.20
27072;DHT22;14613;46.308;25.288;2022-10-23T16:11:38;13.90;84.20
27072;DHT22;14613;46.308;25.288;2022-10-23T16:14:05;13.80;84.30
27072;DHT22;14613;46.308;25.288;2022-10-23T16:16:31;13.80;84.30
27072;DHT22;14613;46.308;25.288;2022-10-23T16:19:02;13.70;84.40
27072;DHT22;14613;46.308;25.288;2022-10-23T16:21:32;13.70;84.50
27072;DHT22;14613;46.308;25.288;2022-10-23T16:23:59;13.60;84.50
27072;DHT22;14613;46.308;25.288;2022-10-23T16:26:27;13.50;84.50
27072;DHT22;14613;46.308;25.288;2022-10-23T16:28:55;13.50;84.60
27072;DHT22;14613;46.308;25.288;2022-10-23T16:31:22;13.40;84.50
27072;DHT22;14613;46.308;25.288;2022-10-23T16:33:49;13.30;84.60
27072;DHT22;14613;46.308;25.288;2022-10-23T16:36:16;13.20;84.60
27072;DHT22;14613;46.308;25.288;2022-10-23T16:38:41;13.20;84.70
27072;DHT22;14613;46.308;25.288;2022-10-23T16:41:07;13.10;84.80
27072;DHT22;14613;46.308;25.288;2022-10-23T16:43:33;13.10;84.80
27072;DHT22;14613;46.308;25.288;2022-10-23T16:46:18;13.00;84.80
27072;DHT22;14613;46.308;25.288;2022-10-23T16:48:44;12.90;84.90
27072;DHT22;14613;46.308;25.288;2022-10-23T16:51:13;12.80;84.80
27072;DHT22;14613;46.308;25.288;2022-10-23T16:53:39;12.80;85.00
27072;DHT22;14613;46.308;25.288;2022-10-23T16:56:07;12.70;85.80
27072;DHT22;14613;46.308;25.288;2022-10-23T16:58:34;12.60;85.10
27072;DHT22;14613;46.308;25.288;2022-10-23T17:01:05;12.50;85.40
27072;DHT22;14613;46.308;25.288;2022-10-23T17:03:36;12.40;85.50
27072;DHT22;14613;46.308;25.288;2022-10-23T17:06:04;12.40;85.50
27072;DHT22;14613;46.308;25.288;2022-10-23T17:08:31;12.30;85.40
27072;DHT22;14613;46.308;25.288;2022-10-23T17:11:22;12.30;85.40
27072;DHT22;14613;46.308;25.288;2022-10-23T17:13:51;12.20;85.40
27072;DHT22;14613;46.308;25.288;2022-10-23T17:16:26;12.10;85.50
27072;DHT22;14613;46.308;25.288;2022-10-23T17:18:52;12.00;85.60
27072;DHT22;14613;46.308;25.288;2022-10-23T17:21:20;11.90;85.60
27072;DHT22;14613;46.308;25.288;2022-10-23T17:23:46;11.80;85.70
27072;DHT22;14613;46.308;25.288;2022-10-23T17:26:14;11.80;85.90
27072;DHT22;14613;46.308;25.288;2022-10-23T17:28:40;11.70;86.10
27072;DHT22;14613;46.308;25.288;2022-10-23T17:31:22;11.70;86.20
27072;DHT22;14613;46.308;25.288;2022-10-23T17:33:51;11.60;86.20
27072;DHT22;14613;46.308;25.288;2022-10-23T17:36:18;11.50;86.30
27072;DHT22;14613;46.308;25.288;2022-10-23T17:38:45;11.50;86.50
27072;DHT22;14613;46.308;25.288;2022-10-23T17:41:13;11.50;86.50
27072;DHT22;14613;46.308;25.288;2022-10-23T17:43:40;11.40;86.50
27072;DHT22;14613;46.308;25.288;2022-10-23T17:46:07;11.40;86.50